Time;durP1;ratioP1;P1;durP2;ratioP2;P2;SDS_P1;SDS_P2;PMS_P1;PMS_P2;Temp;Humidity;BMP_temperature;BMP_pressure;BME280_temperature;BME280_humidity;BME280_pressure;Samples;Min_cycle;Max_cycle;Signal;HPM_P1;HPM_P2
2023/08/05 00:01:02;;;;;;;4.30;3.90;;;;;;;;;;5033995;28;20201;-49
2023/08/05 00:03:28;;;;;;;4.33;3.50;;;;;;;;;;5032034;28;20828;-48
2023/08/05 00:05:54;;;;;;;4.13;3.40;;;;;;;;;;5032286;28;20318;-49
2023/08/05 00:08:21;;;;;;;4.90;3.50;;;;;;;;;;5033959;28;20303;-49
2023/08/05 00:10:47;;;;;;;4.10;3.27;;;;;;;;;;5034150;28;20247;-49
2023/08/05 00:13:13;;;;;;;3.63;3.30;;;;;;;;;;5033895;28;20251;-49
2023/08/05 00:15:40;;;;;;;3.50;3.20;;;;;;;;;;5034018;28;20201;-49
2023/08/05 00:18:06;;;;;;;3.43;3.13;;;;;;;;;;5033948;28;20247;-49
2023/08/05 00:20:32;;;;;;;3.47;3.13;;;;;;;;;;5033820;28;20194;-49
2023/08/05 00:22:58;;;;;;;3.90;3.50;;;;;;;;;;5033507;28;20221;-48
2023/08/05 00:25:24;;;;;;;3.70;3.07;;;;;;;;;;5033439;28;20315;-50
2023/08/05 00:27:50;;;;;;;4.33;3.30;;;;;;;;;;5033803;28;20192;-49
2023/08/05 00:30:17;;;;;;;3.63;2.87;;;;;;;;;;5033454;28;20742;-49
2023/08/05 00:32:44;;;;;;;4.60;3.13;;;;;;;;;;5033464;28;20872;-49
2023/08/05 00:35:10;;;;;;;3.50;3.20;;;;;;;;;;5033147;28;20206;-49
2023/08/05 00:37:36;;;;;;;4.27;3.23;;;;;;;;;;5033645;28;20197;-48
2023/08/05 00:40:03;;;;;;;3.67;3.30;;;;;;;;;;5033440;28;20239;-48
2023/08/05 00:42:29;;;;;;;4.67;3.53;;;;;;;;;;5033243;28;20289;-48
2023/08/05 00:44:55;;;;;;;3.63;3.33;;;;;;;;;;5033277;28;20200;-49
2023/08/05 00:47:30;;;;;;;4.90;3.50;;;;;;;;;;5033220;28;20200;-49
2023/08/05 00:49:58;;;;;;;3.73;3.20;;;;;;;;;;5031382;28;20286;-49
2023/08/05 00:52:25;;;;;;;4.87;3.50;;;;;;;;;;5033068;28;20198;-48
2023/08/05 00:54:51;;;;;;;3.70;3.37;;;;;;;;;;5033316;28;20196;-49
2023/08/05 00:57:19;;;;;;;5.43;3.57;;;;;;;;;;5033079;28;20200;-49
2023/08/05 00:59:45;;;;;;;3.97;3.67;;;;;;;;;;5033025;28;20196;-49
2023/08/05 01:02:11;;;;;;;6.13;4.00;;;;;;;;;;5032874;28;20224;-48
2023/08/05 01:04:37;;;;;;;6.30;4.10;;;;;;;;;;5033000;28;20232;-49
2023/08/05 01:07:05;;;;;;;3.80;3.50;;;;;;;;;;5033189;28;20258;-49
2023/08/05 01:09:32;;;;;;;5.47;3.03;;;;;;;;;;5032622;28;20290;-49
2023/08/05 01:11:58;;;;;;;3.40;3.10;;;;;;;;;;5032742;28;20278;-49
2023/08/05 01:14:24;;;;;;;5.40;3.73;;;;;;;;;;5032653;28;20200;-48
2023/08/05 01:16:50;;;;;;;5.57;3.70;;;;;;;;;;5032912;28;20192;-48
2023/08/05 01:19:18;;;;;;;4.77;3.27;;;;;;;;;;5032529;28;20638;-47
2023/08/05 01:21:48;;;;;;;4.37;3.10;;;;;;;;;;5032589;28;20217;-50
2023/08/05 01:24:19;;;;;;;5.60;4.30;;;;;;;;;;5032296;28;20236;-50
2023/08/05 01:26:47;;;;;;;3.50;3.20;;;;;;;;;;5032587;28;20296;-50
2023/08/05 01:29:13;;;;;;;5.43;3.97;;;;;;;;;;5032428;28;20213;-49
2023/08/05 01:31:40;;;;;;;4.07;3.63;;;;;;;;;;5032525;28;20730;-50
2023/08/05 01:34:06;;;;;;;4.60;4.20;;;;;;;;;;5032597;28;20610;-51
2023/08/05 01:36:33;;;;;;;4.40;4.00;;;;;;;;;;5032283;28;20558;-50
2023/08/05 01:38:59;;;;;;;4.37;3.70;;;;;;;;;;5032386;28;20235;-50
2023/08/05 01:41:25;;;;;;;4.17;3.67;;;;;;;;;;5032083;28;20678;-50
2023/08/05 01:43:52;;;;;;;3.90;3.60;;;;;;;;;;5032432;28;20201;-48
2023/08/05 01:46:18;;;;;;;6.77;3.73;;;;;;;;;;5032187;28;20300;-49
2023/08/05 01:48:44;;;;;;;4.17;3.77;;;;;;;;;;5031998;28;20968;-48
2023/08/05 01:51:10;;;;;;;6.30;3.67;;;;;;;;;;5032037;28;20197;-48
2023/08/05 01:53:36;;;;;;;4.40;4.00;;;;;;;;;;5032043;28;20221;-49
2023/08/05 01:56:02;;;;;;;4.83;4.20;;;;;;;;;;5032016;28;20233;-48
2023/08/05 02:01:42;;;;;;;3.53;3.23;;;;;;;;;;5031189;28;20184;-48
2023/08/05 02:04:10;;;;;;;4.50;4.10;;;;;;;;;;5032053;28;20628;-49
2023/08/05 02:06:36;;;;;;;4.27;3.87;;;;;;;;;;5031915;28;20234;-50
2023/08/05 02:09:02;;;;;;;3.97;3.37;;;;;;;;;;5031466;28;20284;-50
2023/08/05 02:11:28;;;;;;;4.30;3.90;;;;;;;;;;5031628;28;20204;-50
2023/08/05 02:13:54;;;;;;;4.73;3.80;;;;;;;;;;5031585;28;20205;-51
2023/08/05 02:16:20;;;;;;;4.80;4.40;;;;;;;;;;5031854;28;20218;-50
2023/08/05 02:18:46;;;;;;;5.33;4.83;;;;;;;;;;5031367;28;20197;-50
2023/08/05 02:21:14;;;;;;;5.67;4.00;;;;;;;;;;5031401;28;20249;-50
2023/08/05 02:23:40;;;;;;;7.10;3.87;;;;;;;;;;5031155;28;20707;-50
2023/08/05 02:26:06;;;;;;;5.07;4.03;;;;;;;;;;5031480;28;20208;-50
2023/08/05 02:28:32;;;;;;;4.37;3.97;;;;;;;;;;5031346;28;20229;-50
2023/08/05 02:30:58;;;;;;;3.83;3.53;;;;;;;;;;5031166;28;20200;-49
2023/08/05 02:33:24;;;;;;;3.80;3.50;;;;;;;;;;5031346;28;20197;-49
2023/08/05 02:35:50;;;;;;;3.83;3.50;;;;;;;;;;5031305;28;20189;-49
2023/08/05 02:38:17;;;;;;;4.50;3.53;;;;;;;;;;5031232;28;20669;-50
2023/08/05 02:40:43;;;;;;;4.63;3.60;;;;;;;;;;5030995;28;20316;-50
2023/08/05 02:43:09;;;;;;;4.70;3.50;;;;;;;;;;5031175;28;20284;-50
2023/08/05 02:45:35;;;;;;;4.13;3.67;;;;;;;;;;5031353;28;20563;-49
2023/08/05 02:48:01;;;;;;;5.17;3.90;;;;;;;;;;5030867;28;20201;-50
2023/08/05 02:50:27;;;;;;;4.63;3.70;;;;;;;;;;5030943;28;20200;-49
2023/08/05 02:52:53;;;;;;;3.93;3.53;;;;;;;;;;5031026;28;20220;-49
2023/08/05 02:55:21;;;;;;;5.03;4.10;;;;;;;;;;5031271;28;20570;-50
2023/08/05 02:57:47;;;;;;;4.20;3.80;;;;;;;;;;5030838;28;20284;-49
2023/08/05 03:00:13;;;;;;;3.73;3.43;;;;;;;;;;5030884;28;20284;-49
2023/08/05 03:02:39;;;;;;;6.03;4.07;;;;;;;;;;5030829;28;20277;-50
2023/08/05 03:05:06;;;;;;;5.50;3.67;;;;;;;;;;5031061;28;20204;-50
2023/08/05 03:07:32;;;;;;;4.90;3.93;;;;;;;;;;5030647;28;20193;-50
2023/08/05 03:09:58;;;;;;;5.33;4.30;;;;;;;;;;5030533;28;20894;-50
2023/08/05 03:12:25;;;;;;;4.13;3.73;;;;;;;;;;5030729;28;20211;-50
2023/08/05 03:14:51;;;;;;;7.20;4.77;;;;;;;;;;5029940;28;20207;-50
2023/08/05 03:17:17;;;;;;;4.80;4.07;;;;;;;;;;5030797;28;20205;-50
2023/08/05 03:19:43;;;;;;;5.60;4.87;;;;;;;;;;5030705;28;20201;-49
2023/08/05 03:22:09;;;;;;;10.67;5.50;;;;;;;;;;5030356;28;20699;-50
2023/08/05 03:24:35;;;;;;;6.57;4.30;;;;;;;;;;5030587;28;20247;-50
2023/08/05 03:27:01;;;;;;;6.10;5.50;;;;;;;;;;5030388;28;20547;-50
2023/08/05 03:29:29;;;;;;;7.60;5.10;;;;;;;;;;5030387;28;20225;-50
2023/08/05 03:31:55;;;;;;;7.80;5.50;;;;;;;;;;5030479;28;20201;-49
2023/08/05 03:34:23;;;;;;;6.93;4.77;;;;;;;;;;5030572;28;20612;-50
2023/08/05 03:36:51;;;;;;;6.03;5.40;;;;;;;;;;5030407;28;20197;-50
2023/08/05 03:39:17;;;;;;;8.77;4.97;;;;;;;;;;5030480;28;20203;-50
2023/08/05 03:41:45;;;;;;;10.80;6.33;;;;;;;;;;5030315;28;20324;-49
2023/08/05 03:44:11;;;;;;;6.97;5.37;;;;;;;;;;5030360;28;20204;-49
2023/08/05 03:46:38;;;;;;;6.87;5.70;;;;;;;;;;5030521;28;20199;-49
2023/08/05 03:49:04;;;;;;;6.60;5.97;;;;;;;;;;5030224;28;20252;-49
2023/08/05 03:51:30;;;;;;;6.87;5.87;;;;;;;;;;5030098;28;20725;-49
2023/08/05 03:53:56;;;;;;;7.50;5.70;;;;;;;;;;5029989;28;20220;-49
2023/08/05 03:56:24;;;;;;;9.93;6.17;;;;;;;;;;5030012;28;20201;-49
2023/08/05 03:58:51;;;;;;;8.03;6.17;;;;;;;;;;5028207;28;20561;-49
2023/08/05 04:01:19;;;;;;;10.23;6.13;;;;;;;;;;5030252;28;20219;-49
2023/08/05 04:03:46;;;;;;;6.77;5.70;;;;;;;;;;5029890;28;20233;-50
2023/08/05 04:06:12;;;;;;;6.87;5.60;;;;;;;;;;5030055;28;20201;-50
2023/08/05 04:08:39;;;;;;;5.87;5.37;;;;;;;;;;5030139;28;20275;-49
2023/08/05 04:11:05;;;;;;;7.03;5.43;;;;;;;;;;5030321;28;20561;-49
2023/08/05 04:13:33;;;;;;;6.43;5.70;;;;;;;;;;5030296;28;20193;-49
2023/08/05 04:16:03;;;;;;;8.30;6.03;;;;;;;;;;5029985;28;20204;-50
2023/08/05 04:18:29;;;;;;;6.90;6.17;;;;;;;;;;5030144;28;20194;-50
2023/08/05 04:20:57;;;;;;;6.87;6.13;;;;;;;;;;5030039;28;20225;-49
2023/08/05 04:23:25;;;;;;;6.60;5.30;;;;;;;;;;5029809;28;20228;-50
2023/08/05 04:25:51;;;;;;;5.33;4.83;;;;;;;;;;5032452;28;20209;-49
2023/08/05 04:28:17;;;;;;;7.70;5.13;;;;;;;;;;5033531;28;20259;-50
2023/08/05 04:30:43;;;;;;;7.23;4.87;;;;;;;;;;5033560;28;20201;-49
2023/08/05 04:33:11;;;;;;;6.43;5.00;;;;;;;;;;5033241;28;20204;-49
2023/08/05 04:35:37;;;;;;;6.43;5.73;;;;;;;;;;5033813;28;20200;-50
2023/08/05 04:38:04;;;;;;;7.47;5.47;;;;;;;;;;5033260;28;20222;-50
2023/08/05 04:40:30;;;;;;;6.83;5.47;;;;;;;;;;5033385;28;20571;-50
2023/08/05 04:42:56;;;;;;;7.27;5.53;;;;;;;;;;5033265;28;20211;-49
2023/08/05 04:45:22;;;;;;;6.27;5.50;;;;;;;;;;5033624;28;20192;-50
2023/08/05 04:47:48;;;;;;;7.67;6.90;;;;;;;;;;5033314;28;20201;-49
2023/08/05 04:50:14;;;;;;;8.40;6.40;;;;;;;;;;5033222;28;20302;-50
2023/08/05 04:52:40;;;;;;;7.73;5.87;;;;;;;;;;5033062;28;20228;-50
2023/08/05 04:55:12;;;;;;;6.63;5.77;;;;;;;;;;5033246;28;20658;-50
2023/08/05 04:57:38;;;;;;;6.27;5.57;;;;;;;;;;5033025;28;20205;-50
2023/08/05 05:00:04;;;;;;;8.10;6.10;;;;;;;;;;5032936;28;20258;-51
2023/08/05 05:02:30;;;;;;;8.13;6.70;;;;;;;;;;5032975;28;20291;-50
2023/08/05 05:04:56;;;;;;;8.13;6.67;;;;;;;;;;5032782;28;20208;-51
2023/08/05 05:07:22;;;;;;;11.53;6.90;;;;;;;;;;5032985;28;20244;-50
2023/08/05 05:09:48;;;;;;;8.07;6.63;;;;;;;;;;5032856;28;20228;-51
2023/08/05 05:12:16;;;;;;;11.37;7.63;;;;;;;;;;5032823;28;20714;-49
2023/08/05 05:14:46;;;;;;;10.00;7.60;;;;;;;;;;5032802;28;20213;-51
2023/08/05 05:17:14;;;;;;;11.07;7.80;;;;;;;;;;5032692;28;20200;-50
2023/08/05 05:19:40;;;;;;;11.03;8.27;;;;;;;;;;5032617;28;20243;-51
2023/08/05 05:22:06;;;;;;;7.97;7.20;;;;;;;;;;5032564;28;20225;-50
2023/08/05 05:24:32;;;;;;;8.97;6.60;;;;;;;;;;5032642;28;20229;-50
2023/08/05 05:26:58;;;;;;;8.73;7.47;;;;;;;;;;5032357;28;20303;-51
2023/08/05 05:29:26;;;;;;;13.30;7.20;;;;;;;;;;5032417;28;20315;-48
2023/08/05 05:31:52;;;;;;;8.50;7.60;;;;;;;;;;5032513;28;20655;-48
2023/08/05 05:34:18;;;;;;;9.57;7.83;;;;;;;;;;5032565;28;20200;-48
2023/08/05 05:36:44;;;;;;;8.20;7.27;;;;;;;;;;5031212;28;20228;-49
2023/08/05 05:39:10;;;;;;;7.67;6.97;;;;;;;;;;5032134;28;20565;-49
2023/08/05 05:41:36;;;;;;;9.93;7.23;;;;;;;;;;5032499;28;20201;-48
2023/08/05 05:44:04;;;;;;;9.93;6.70;;;;;;;;;;5032086;28;20246;-49
2023/08/05 05:46:34;;;;;;;12.90;7.97;;;;;;;;;;5032212;28;20228;-48
2023/08/05 05:49:03;;;;;;;10.60;7.10;;;;;;;;;;5031961;28;20243;-48
2023/08/05 05:51:29;;;;;;;10.27;7.60;;;;;;;;;;5032056;28;20205;-48
2023/08/05 05:53:55;;;;;;;7.53;6.73;;;;;;;;;;5031993;28;20280;-48
2023/08/05 05:56:21;;;;;;;10.50;6.90;;;;;;;;;;5032228;28;20209;-48
2023/08/05 05:58:47;;;;;;;9.40;7.13;;;;;;;;;;5031879;28;20204;-48
2023/08/05 06:01:13;;;;;;;8.30;6.63;;;;;;;;;;5031927;28;20209;-48
2023/08/05 06:03:42;;;;;;;9.77;6.43;;;;;;;;;;5031880;28;20190;-48
2023/08/05 06:06:08;;;;;;;7.73;6.23;;;;;;;;;;5031794;28;20212;-48
2023/08/05 06:08:34;;;;;;;7.83;6.30;;;;;;;;;;5031780;28;20225;-48
2023/08/05 06:11:03;;;;;;;7.43;6.17;;;;;;;;;;5031625;28;20215;-51
2023/08/05 06:13:29;;;;;;;9.80;6.33;;;;;;;;;;5031782;28;20201;-51
2023/08/05 06:15:55;;;;;;;6.27;5.23;;;;;;;;;;5031428;28;20197;-48
2023/08/05 06:18:21;;;;;;;7.87;5.20;;;;;;;;;;5031871;28;20200;-50
2023/08/05 06:20:48;;;;;;;5.60;4.80;;;;;;;;;;5031498;28;20270;-48
2023/08/05 06:23:14;;;;;;;9.90;5.30;;;;;;;;;;5031303;28;20279;-48
2023/08/05 06:25:41;;;;;;;6.40;4.27;;;;;;;;;;5031458;28;20201;-48
2023/08/05 06:28:07;;;;;;;6.70;4.90;;;;;;;;;;5031488;28;20283;-51
2023/08/05 06:30:34;;;;;;;7.93;4.53;;;;;;;;;;5031422;28;20220;-48
2023/08/05 06:33:00;;;;;;;6.33;4.27;;;;;;;;;;5031156;28;20206;-51
2023/08/05 06:35:26;;;;;;;6.33;3.77;;;;;;;;;;5031221;28;20304;-52
2023/08/05 06:37:53;;;;;;;5.20;3.53;;;;;;;;;;5031347;28;20228;-52
2023/08/05 06:40:19;;;;;;;5.80;3.57;;;;;;;;;;5031330;28;20198;-52
2023/08/05 06:42:45;;;;;;;5.97;3.57;;;;;;;;;;5030956;28;20592;-52
2023/08/05 06:45:11;;;;;;;6.57;3.03;;;;;;;;;;5031120;28;20202;-50
2023/08/05 06:47:37;;;;;;;4.03;2.83;;;;;;;;;;5030692;28;20244;-52
2023/08/05 06:50:06;;;;;;;4.03;2.90;;;;;;;;;;5030879;28;20229;-52
2023/08/05 06:52:32;;;;;;;4.83;3.33;;;;;;;;;;5030969;28;20291;-52
2023/08/05 06:55:03;;;;;;;8.80;3.50;;;;;;;;;;5030736;28;20203;-50
2023/08/05 06:57:30;;;;;;;8.13;4.13;;;;;;;;;;5030846;28;20203;-51
2023/08/05 06:59:56;;;;;;;6.00;3.70;;;;;;;;;;5030756;28;20201;-52
2023/08/05 07:02:22;;;;;;;5.83;3.17;;;;;;;;;;5030963;28;20198;-52
2023/08/05 07:04:48;;;;;;;5.63;3.23;;;;;;;;;;5030581;28;20202;-51
2023/08/05 07:07:14;;;;;;;5.17;2.97;;;;;;;;;;5030531;28;20205;-52
2023/08/05 07:09:40;;;;;;;8.40;3.03;;;;;;;;;;5030668;28;20216;-51
2023/08/05 07:12:08;;;;;;;5.73;2.67;;;;;;;;;;5030845;28;20267;-51
2023/08/05 07:14:34;;;;;;;5.40;2.70;;;;;;;;;;5030682;28;20207;-52
2023/08/05 07:17:00;;;;;;;7.73;3.43;;;;;;;;;;5030468;28;20200;-51
2023/08/05 07:19:26;;;;;;;6.47;3.03;;;;;;;;;;5030578;28;20612;-51
2023/08/05 07:21:52;;;;;;;8.47;3.30;;;;;;;;;;5030444;28;20254;-50
2023/08/05 07:24:18;;;;;;;8.27;3.17;;;;;;;;;;5030643;28;20232;-50
2023/08/05 07:26:44;;;;;;;4.40;2.97;;;;;;;;;;5030370;28;20204;-50
2023/08/05 07:29:11;;;;;;;5.03;2.67;;;;;;;;;;5030324;28;20228;-50
2023/08/05 07:31:38;;;;;;;6.33;2.90;;;;;;;;;;5030595;28;20208;-50
2023/08/05 07:34:08;;;;;;;4.23;2.50;;;;;;;;;;5030554;28;20204;-50
2023/08/05 07:36:34;;;;;;;5.10;2.80;;;;;;;;;;5030489;28;20204;-50
2023/08/05 07:39:03;;;;;;;2.83;2.27;;;;;;;;;;5030302;28;20200;-50
2023/08/05 07:41:30;;;;;;;5.93;2.63;;;;;;;;;;5030417;28;20207;-50
2023/08/05 07:44:00;;;;;;;5.37;2.67;;;;;;;;;;5030381;28;20282;-50
2023/08/05 07:46:31;;;;;;;6.90;2.80;;;;;;;;;;5030366;28;20205;-50
2023/08/05 07:48:58;;;;;;;5.90;3.07;;;;;;;;;;5030301;28;20289;-50
2023/08/05 07:51:24;;;;;;;4.73;2.77;;;;;;;;;;5030233;28;20681;-50
2023/08/05 07:53:53;;;;;;;6.10;2.63;;;;;;;;;;5030423;28;20242;-50
2023/08/05 07:56:20;;;;;;;5.40;2.70;;;;;;;;;;5030659;28;20231;-50
2023/08/05 07:58:46;;;;;;;6.70;2.67;;;;;;;;;;5030083;28;20211;-50
2023/08/05 08:01:13;;;;;;;5.23;3.00;;;;;;;;;;5033378;28;20193;-49
2023/08/05 08:03:42;;;;;;;5.50;2.73;;;;;;;;;;5034028;28;20656;-49
2023/08/05 08:06:08;;;;;;;7.87;2.97;;;;;;;;;;5034116;28;20279;-49
2023/08/05 08:08:34;;;;;;;8.17;3.17;;;;;;;;;;5034117;28;20203;-50
2023/08/05 08:11:31;;;;;;;7.27;2.67;;;;;;;;;;5034153;28;20253;-50
2023/08/05 08:13:57;;;;;;;4.43;2.40;;;;;;;;;;5028101;28;20188;-50
2023/08/05 08:16:23;;;;;;;5.07;2.33;;;;;;;;;;5033895;28;20203;-50
2023/08/05 08:18:51;;;;;;;3.50;2.20;;;;;;;;;;5033922;28;20327;-51
2023/08/05 08:21:17;;;;;;;2.60;2.30;;;;;;;;;;5033681;28;20229;-52
2023/08/05 08:23:43;;;;;;;4.77;2.30;;;;;;;;;;5033398;28;20323;-52
2023/08/05 08:26:09;;;;;;;4.70;2.50;;;;;;;;;;5033495;28;20220;-51
2023/08/05 08:28:35;;;;;;;5.97;2.63;;;;;;;;;;5033728;28;20291;-50
2023/08/05 08:31:01;;;;;;;5.40;2.70;;;;;;;;;;5033488;28;20284;-51
2023/08/05 08:33:28;;;;;;;7.27;2.77;;;;;;;;;;5033291;28;20299;-51
2023/08/05 08:35:55;;;;;;;5.07;2.23;;;;;;;;;;5033363;28;20231;-51
2023/08/05 08:38:25;;;;;;;4.60;2.50;;;;;;;;;;5033674;28;20204;-51
2023/08/05 08:40:51;;;;;;;4.80;2.30;;;;;;;;;;5033539;28;20232;-51
2023/08/05 08:43:20;;;;;;;4.60;2.27;;;;;;;;;;5033422;28;20201;-50
2023/08/05 08:45:48;;;;;;;6.37;2.40;;;;;;;;;;5033178;28;20195;-52
2023/08/05 08:48:15;;;;;;;4.97;2.57;;;;;;;;;;5033285;28;20365;-53
2023/08/05 08:50:42;;;;;;;4.10;2.33;;;;;;;;;;5032862;28;20236;-52
2023/08/05 08:53:10;;;;;;;4.60;2.40;;;;;;;;;;5033310;28;20291;-50
2023/08/05 08:55:37;;;;;;;4.03;2.10;;;;;;;;;;5033238;28;20206;-52
2023/08/05 08:58:03;;;;;;;3.17;2.17;;;;;;;;;;5033033;28;20553;-52
2023/08/05 09:00:31;;;;;;;6.80;2.60;;;;;;;;;;5033049;28;20200;-52
2023/08/05 09:02:58;;;;;;;3.73;2.23;;;;;;;;;;5032940;28;20192;-57
2023/08/05 09:05:24;;;;;;;2.83;1.97;;;;;;;;;;5032918;28;20227;-53
2023/08/05 09:07:50;;;;;;;5.67;2.23;;;;;;;;;;5033003;28;20212;-53
2023/08/05 09:10:18;;;;;;;7.53;2.30;;;;;;;;;;5032701;28;20259;-56
2023/08/05 09:12:44;;;;;;;3.83;2.33;;;;;;;;;;5030613;28;20204;-52
2023/08/05 09:15:14;;;;;;;5.07;2.30;;;;;;;;;;5032667;28;20192;-52
2023/08/05 09:17:40;;;;;;;2.87;1.90;;;;;;;;;;5032378;28;20198;-53
2023/08/05 09:20:13;;;;;;;5.00;2.13;;;;;;;;;;5032633;28;20208;-52
2023/08/05 09:22:39;;;;;;;4.17;2.37;;;;;;;;;;5032489;28;20241;-53
2023/08/05 09:25:05;;;;;;;2.23;2.00;;;;;;;;;;5032569;28;20263;-52
2023/08/05 09:27:45;;;;;;;3.67;2.20;;;;;;;;;;5032156;28;20538;-53
2023/08/05 09:30:15;;;;;;;4.47;1.80;;;;;;;;;;5032436;28;20224;-53
2023/08/05 09:32:43;;;;;;;2.63;1.63;;;;;;;;;;5032114;28;20207;-53
2023/08/05 09:35:10;;;;;;;3.13;1.90;;;;;;;;;;5032067;28;20255;-53
2023/08/05 09:37:38;;;;;;;2.93;1.90;;;;;;;;;;5032355;28;20207;-52
2023/08/05 09:40:15;;;;;;;2.87;1.63;;;;;;;;;;5032282;28;20212;-52
2023/08/05 09:42:43;;;;;;;3.80;2.00;;;;;;;;;;5032097;28;20204;-53
2023/08/05 09:45:12;;;;;;;3.33;2.07;;;;;;;;;;5032069;28;20263;-53
2023/08/05 09:47:38;;;;;;;2.50;1.93;;;;;;;;;;5032006;28;20198;-53
2023/08/05 09:50:08;;;;;;;3.30;1.77;;;;;;;;;;5031932;28;20688;-53
2023/08/05 09:52:34;;;;;;;2.70;1.90;;;;;;;;;;5032086;28;20203;-53
2023/08/05 09:55:01;;;;;;;2.57;1.80;;;;;;;;;;5029865;28;20261;-53
2023/08/05 09:57:28;;;;;;;3.67;2.17;;;;;;;;;;5031170;28;20560;-53
2023/08/05 09:59:58;;;;;;;3.03;1.70;;;;;;;;;;5031385;28;20200;-53
2023/08/05 10:02:25;;;;;;;2.70;2.10;;;;;;;;;;5031782;28;20207;-53
2023/08/05 10:04:53;;;;;;;3.23;2.00;;;;;;;;;;5031517;28;20211;-53
2023/08/05 10:07:20;;;;;;;4.20;1.90;;;;;;;;;;5031772;28;20278;-53
2023/08/05 10:09:46;;;;;;;3.07;2.10;;;;;;;;;;5031321;28;20258;-52
2023/08/05 10:12:13;;;;;;;2.63;2.10;;;;;;;;;;5031486;28;20361;-52
2023/08/05 10:14:40;;;;;;;3.67;2.17;;;;;;;;;;5031153;28;20203;-52
2023/08/05 10:17:07;;;;;;;3.23;2.10;;;;;;;;;;5031624;28;20204;-53
2023/08/05 10:19:34;;;;;;;2.13;1.70;;;;;;;;;;5031596;28;20200;-53
2023/08/05 10:22:10;;;;;;;3.60;1.90;;;;;;;;;;5031050;28;20216;-53
2023/08/05 10:24:51;;;;;;;2.33;1.70;;;;;;;;;;5031130;28;20260;-53
2023/08/05 10:27:17;;;;;;;3.03;1.73;;;;;;;;;;5031185;28;20204;-53
2023/08/05 10:29:54;;;;;;;2.60;2.00;;;;;;;;;;5031015;28;20254;-53
2023/08/05 10:32:29;;;;;;;2.00;1.80;;;;;;;;;;5031365;28;20203;-53
2023/08/05 10:35:13;;;;;;;2.20;1.80;;;;;;;;;;5030938;28;20203;-53
2023/08/05 10:37:49;;;;;;;3.60;1.87;;;;;;;;;;5030883;28;20204;-54
2023/08/05 10:40:35;;;;;;;2.37;2.07;;;;;;;;;;5030900;28;20185;-53
2023/08/05 10:43:01;;;;;;;3.00;2.70;;;;;;;;;;5030632;28;20283;-53
2023/08/05 10:45:27;;;;;;;2.63;2.10;;;;;;;;;;5030797;28;20204;-53
2023/08/05 10:47:54;;;;;;;4.50;2.03;;;;;;;;;;5031018;28;20200;-53
2023/08/05 10:50:20;;;;;;;2.53;1.90;;;;;;;;;;5030913;28;20277;-53
2023/08/05 10:52:46;;;;;;;2.73;1.87;;;;;;;;;;5030620;28;20211;-54
2023/08/05 10:55:13;;;;;;;2.73;1.40;;;;;;;;;;5030723;28;20200;-52
2023/08/05 10:57:48;;;;;;;2.07;1.87;;;;;;;;;;5030484;28;20193;-52
2023/08/05 11:00:18;;;;;;;2.70;1.50;;;;;;;;;;5030731;28;20410;-53
2023/08/05 11:02:44;;;;;;;2.40;1.70;;;;;;;;;;5030757;28;20199;-54
2023/08/05 11:05:11;;;;;;;2.00;1.60;;;;;;;;;;5030723;28;20203;-54
2023/08/05 11:07:37;;;;;;;1.93;1.43;;;;;;;;;;5030804;28;20293;-54
2023/08/05 11:10:04;;;;;;;3.93;2.20;;;;;;;;;;5030653;28;20230;-53
2023/08/05 11:12:30;;;;;;;5.27;2.20;;;;;;;;;;5028553;28;20201;-53
2023/08/05 11:14:56;;;;;;;3.77;1.90;;;;;;;;;;5030173;28;20598;-53
2023/08/05 11:17:22;;;;;;;2.67;2.37;;;;;;;;;;5030300;28;20193;-52
2023/08/05 11:19:52;;;;;;;4.37;2.80;;;;;;;;;;5030683;28;20607;-52
2023/08/05 11:22:24;;;;;;;3.73;2.20;;;;;;;;;;5031032;28;20222;-53
2023/08/05 11:24:54;;;;;;;2.80;1.93;;;;;;;;;;5031046;28;20636;-53
2023/08/05 11:27:20;;;;;;;2.93;2.07;;;;;;;;;;5031013;28;20210;-53
2023/08/05 11:29:46;;;;;;;3.07;2.07;;;;;;;;;;5030748;28;20323;-53
2023/08/05 11:32:12;;;;;;;2.53;1.90;;;;;;;;;;5030923;28;20295;-53
2023/08/05 11:34:38;;;;;;;2.83;1.90;;;;;;;;;;5031352;28;20278;-53
2023/08/05 11:37:04;;;;;;;3.20;1.93;;;;;;;;;;5034987;28;20261;-53
2023/08/05 11:39:31;;;;;;;2.37;1.83;;;;;;;;;;5034902;28;20203;-53
2023/08/05 11:41:57;;;;;;;1.80;1.53;;;;;;;;;;5033279;28;20217;-54
2023/08/05 11:44:23;;;;;;;2.23;1.87;;;;;;;;;;5034809;28;20200;-54
2023/08/05 11:46:50;;;;;;;3.00;1.83;;;;;;;;;;5034949;28;20292;-53
2023/08/05 11:49:17;;;;;;;1.93;1.80;;;;;;;;;;5034561;28;20235;-53
2023/08/05 11:51:46;;;;;;;2.03;1.80;;;;;;;;;;5034710;28;20207;-52
2023/08/05 11:54:12;;;;;;;1.93;1.80;;;;;;;;;;5034527;28;20656;-53
2023/08/05 11:56:40;;;;;;;2.27;1.70;;;;;;;;;;5034638;28;20198;-53
2023/08/05 11:59:06;;;;;;;2.87;2.00;;;;;;;;;;5034900;28;20210;-52
2023/08/05 12:01:35;;;;;;;2.10;1.90;;;;;;;;;;5034625;28;20202;-53
2023/08/05 12:04:06;;;;;;;3.10;1.80;;;;;;;;;;5034357;28;20223;-52
2023/08/05 12:06:32;;;;;;;4.47;3.43;;;;;;;;;;5034353;28;20202;-53
2023/08/05 12:09:00;;;;;;;3.87;2.47;;;;;;;;;;5034105;28;20206;-53
2023/08/05 12:11:26;;;;;;;3.50;2.00;;;;;;;;;;5034297;28;20212;-53
2023/08/05 12:13:53;;;;;;;4.80;2.20;;;;;;;;;;5034310;28;20211;-53
2023/08/05 12:16:19;;;;;;;3.27;2.40;;;;;;;;;;5034336;28;20207;-53
2023/08/05 12:18:46;;;;;;;3.10;2.10;;;;;;;;;;5033893;28;20197;-54
2023/08/05 12:21:12;;;;;;;2.30;2.10;;;;;;;;;;5034020;28;20201;-53
2023/08/05 12:23:41;;;;;;;3.17;2.20;;;;;;;;;;5032128;28;20260;-54
2023/08/05 12:26:07;;;;;;;4.97;2.27;;;;;;;;;;5034039;28;20276;-54
2023/08/05 12:28:33;;;;;;;2.60;2.23;;;;;;;;;;5034124;28;20578;-53
2023/08/05 12:31:00;;;;;;;2.43;1.80;;;;;;;;;;5033637;28;20236;-54
2023/08/05 12:33:27;;;;;;;2.73;2.30;;;;;;;;;;5033600;28;20215;-54
2023/08/05 12:35:53;;;;;;;3.17;2.30;;;;;;;;;;5033705;28;20249;-54
2023/08/05 12:38:19;;;;;;;2.80;2.00;;;;;;;;;;5033927;28;20578;-53
2023/08/05 12:40:45;;;;;;;2.90;2.17;;;;;;;;;;5033529;28;20202;-53
2023/08/05 12:43:12;;;;;;;2.10;1.90;;;;;;;;;;5034183;28;20302;-53
2023/08/05 12:45:38;;;;;;;2.60;1.90;;;;;;;;;;5033397;28;20673;-53
2023/08/05 12:48:06;;;;;;;2.30;2.00;;;;;;;;;;5033814;28;20211;-52
2023/08/05 12:50:32;;;;;;;2.30;2.10;;;;;;;;;;5033281;28;20252;-53
2023/08/05 12:52:58;;;;;;;2.20;2.00;;;;;;;;;;5033307;28;20197;-54
2023/08/05 12:55:24;;;;;;;3.63;2.07;;;;;;;;;;5033326;28;20284;-52
2023/08/05 12:57:51;;;;;;;2.97;2.10;;;;;;;;;;5033431;28;20229;-53
2023/08/05 13:00:17;;;;;;;5.97;3.87;;;;;;;;;;5033203;28;20682;-52
2023/08/05 13:02:46;;;;;;;3.83;2.63;;;;;;;;;;5033220;28;20474;-53
2023/08/05 13:05:13;;;;;;;3.87;2.30;;;;;;;;;;5033140;28;20206;-53
2023/08/05 13:07:39;;;;;;;2.73;2.10;;;;;;;;;;5033098;28;20675;-52
2023/08/05 13:10:05;;;;;;;2.67;1.83;;;;;;;;;;5033136;28;20348;-52
2023/08/05 13:12:31;;;;;;;3.03;2.00;;;;;;;;;;5032944;28;20285;-52
2023/08/05 13:14:57;;;;;;;2.70;1.90;;;;;;;;;;5030755;28;20282;-53
2023/08/05 13:17:23;;;;;;;2.30;2.10;;;;;;;;;;5033018;28;20277;-53
2023/08/05 13:19:49;;;;;;;2.37;1.97;;;;;;;;;;5032804;28;20731;-52
2023/08/05 13:22:17;;;;;;;2.20;2.00;;;;;;;;;;5032634;28;20684;-50
2023/08/05 13:24:44;;;;;;;2.23;2.03;;;;;;;;;;5032575;28;20936;-50
2023/08/05 13:27:10;;;;;;;2.47;2.07;;;;;;;;;;5032826;28;20241;-50
2023/08/05 13:29:36;;;;;;;2.10;1.90;;;;;;;;;;5032752;28;20254;-51
2023/08/05 13:32:02;;;;;;;2.60;1.90;;;;;;;;;;5032484;28;20238;-52
2023/08/05 13:34:28;;;;;;;2.50;2.00;;;;;;;;;;5032320;28;20281;-53
2023/08/05 13:36:54;;;;;;;3.67;2.27;;;;;;;;;;5032375;28;20204;-52
2023/08/05 13:39:22;;;;;;;2.23;1.90;;;;;;;;;;5032695;28;20662;-52
2023/08/05 13:41:49;;;;;;;2.50;1.90;;;;;;;;;;5032362;28;20212;-52
2023/08/05 13:44:15;;;;;;;2.87;2.30;;;;;;;;;;5032628;28;20195;-52
2023/08/05 13:46:41;;;;;;;2.43;2.20;;;;;;;;;;5032286;28;20654;-52
2023/08/05 13:49:07;;;;;;;6.13;1.97;;;;;;;;;;5032558;28;20234;-53
2023/08/05 13:51:33;;;;;;;2.70;1.80;;;;;;;;;;5032244;28;20317;-53
2023/08/05 13:53:59;;;;;;;1.97;1.70;;;;;;;;;;5032064;28;20232;-53
2023/08/05 13:56:26;;;;;;;2.67;1.90;;;;;;;;;;5032407;28;20249;-52
2023/08/05 13:58:52;;;;;;;3.03;1.97;;;;;;;;;;5031398;28;20217;-51
2023/08/05 14:01:18;;;;;;;5.13;3.10;;;;;;;;;;5032470;28;20203;-52
2023/08/05 14:03:44;;;;;;;2.03;1.80;;;;;;;;;;5032079;28;20206;-52
2023/08/05 14:06:12;;;;;;;2.37;2.17;;;;;;;;;;5032059;28;20208;-53
2023/08/05 14:08:38;;;;;;;3.20;1.83;;;;;;;;;;5032173;28;20209;-52
2023/08/05 14:11:04;;;;;;;4.17;2.03;;;;;;;;;;5031988;28;20238;-53
2023/08/05 14:13:31;;;;;;;2.13;1.77;;;;;;;;;;5032032;28;20683;-53
2023/08/05 14:15:57;;;;;;;3.00;1.93;;;;;;;;;;5031794;28;20202;-54
2023/08/05 14:18:25;;;;;;;1.70;1.60;;;;;;;;;;5031945;28;20197;-53
2023/08/05 14:20:53;;;;;;;3.07;2.30;;;;;;;;;;5031682;28;20602;-53
2023/08/05 14:23:19;;;;;;;2.97;1.93;;;;;;;;;;5031628;28;20220;-54
2023/08/05 14:25:45;;;;;;;2.47;1.97;;;;;;;;;;5031615;28;20220;-52
2023/08/05 14:28:12;;;;;;;4.13;2.07;;;;;;;;;;5031627;28;20303;-52
2023/08/05 14:30:40;;;;;;;2.43;2.00;;;;;;;;;;5031545;28;20221;-52
2023/08/05 14:33:06;;;;;;;2.30;1.97;;;;;;;;;;5029958;28;20208;-52
2023/08/05 14:35:32;;;;;;;2.10;1.80;;;;;;;;;;5031792;28;20200;-52
2023/08/05 14:37:59;;;;;;;2.17;1.97;;;;;;;;;;5027542;28;20201;-52
2023/08/05 14:40:25;;;;;;;2.20;1.87;;;;;;;;;;5031495;28;20666;-52
2023/08/05 14:42:51;;;;;;;2.67;2.17;;;;;;;;;;5031425;28;20297;-52
2023/08/05 14:45:17;;;;;;;3.73;1.90;;;;;;;;;;5031481;28;20254;-52